Fort Severn, Canada
Current Conditions -  °F | °C
As of 7:00 PM on Friday 21 Nov 2014 (Local Time) from CYER Reporting Station
Light Snow Light Snow  
Wind Chill: -7°   Ceiling: 1500
Heat Index:   Visibility: 1.5mi
Dew Point:   Wind: 7mph
Humidity: 85%   Direction: 140°SE
Pressure: 29.52"   Gusts: NA
Location:  55.98°N, 87.65°W
Report Text: CYER 220000Z AUTO 14006KT 1 1/2SM -SN OVC015 M15/M17 A2952 RMK SLP999
Loading
Personal Weather Stations






























Interactive Weather Map New forecast layout! Learn more

10-Day Weather Forecast

Advertisements
Track Severe Weather on mobile